Time;durP1;ratioP1;P1;durP2;ratioP2;P2;SDS_P1;SDS_P2;PMS_P1;PMS_P2;Temp;Humidity;BMP_temperature;BMP_pressure;BME280_temperature;BME280_humidity;BME280_pressure;Samples;Min_cycle;Max_cycle;Signal;HPM_P1;HPM_P2
2022/03/26 08:29:36;;;;;;;46.15;18.40;;;5.10;99.90;;;;;;4927339;29;20135;-95
2022/03/26 08:32:04;;;;;;;45.97;15.95;;;5.30;99.90;;;;;;4917483;29;20040;-94
2022/03/26 10:59:42;;;;;;;26.77;13.88;;;19.80;68.40;;;;;;5063057;23;20099;-96
2022/03/26 11:02:08;;;;;;;36.17;13.65;;;20.10;67.30;;;;;;4850923;29;20045;-96
2022/03/26 11:04:34;;;;;;;26.05;13.10;;;20.20;66.10;;;;;;4833410;29;20400;-95
2022/03/26 11:07:02;;;;;;;24.02;12.80;;;20.30;65.30;;;;;;4833337;29;20067;-96
2022/03/26 11:09:28;;;;;;;25.80;12.57;;;20.50;64.50;;;;;;4833054;29;20022;-96
2022/03/26 11:11:56;;;;;;;25.95;12.80;;;20.60;63.80;;;;;;4832795;29;20062;-94
2022/03/26 11:14:32;;;;;;;25.70;13.32;;;20.80;63.20;;;;;;4832202;29;20030;-94
2022/03/26 11:17:44;;;;;;;22.35;13.38;;;20.90;63.10;;;;;;4839039;29;20022;-94
2022/03/26 11:20:32;;;;;;;25.35;13.32;;;21.00;63.10;;;;;;4851548;29;20068;-94
2022/03/26 11:23:35;;;;;;;30.55;13.32;;;21.00;63.00;;;;;;4851193;29;20106;-96
2022/03/26 11:26:34;;;;;;;26.90;14.10;;;21.00;62.50;;;;;;4851264;29;20038;-96
2022/03/26 11:29:20;;;;;;;30.65;13.50;;;21.30;62.00;;;;;;4760931;30;20036;-96
2022/03/26 11:32:21;;;;;;;25.67;13.85;;;21.50;61.60;;;;;;4775444;30;20048;-93
2022/03/26 11:35:00;;;;;;;23.10;12.68;;;21.80;60.80;;;;;;4738413;30;20048;-96
2022/03/26 11:37:26;;;;;;;26.92;13.07;;;22.00;59.60;;;;;;4761681;30;20071;-96
2022/03/26 11:39:52;;;;;;;32.15;14.88;;;22.10;58.90;;;;;;4759488;30;20028;-95
2022/03/26 11:42:34;;;;;;;26.00;16.38;;;22.30;58.40;;;;;;4760554;30;20046;-96
2022/03/26 11:51:24;;;;;;;26.60;15.45;;;22.60;57.70;;;;;;4764753;30;20055;-96
2022/03/26 11:54:06;;;;;;;25.85;14.52;;;22.70;57.50;;;;;;4746863;30;20052;-96
2022/03/26 11:56:33;;;;;;;28.38;14.27;;;22.70;57.10;;;;;;4761390;30;20028;-93
2022/03/26 11:59:17;;;;;;;26.20;15.85;;;22.80;56.80;;;;;;4743035;30;20059;-96
2022/03/26 12:01:44;;;;;;;31.38;15.95;;;22.70;56.40;;;;;;4757841;30;20032;-96
2022/03/26 12:04:25;;;;;;;31.30;15.80;;;22.60;56.30;;;;;;4787166;29;20042;-96
2022/03/26 12:06:57;;;;;;;27.23;15.98;;;22.60;56.30;;;;;;4851215;29;20097;-96
2022/03/26 12:09:33;;;;;;;24.55;15.60;;;22.60;56.40;;;;;;4838037;29;20062;-96
2022/03/26 12:12:10;;;;;;;27.73;16.65;;;22.60;56.60;;;;;;4837842;29;20038;-95
2022/03/26 12:14:56;;;;;;;29.95;16.15;;;22.80;56.80;;;;;;4837440;29;20030;-95
2022/03/26 12:17:44;;;;;;;29.88;15.50;;;23.00;56.30;;;;;;4831921;29;20045;-95
2022/03/26 12:20:26;;;;;;;28.13;15.70;;;23.20;55.60;;;;;;4831740;29;20045;-95
2022/03/26 12:23:06;;;;;;;25.63;15.73;;;23.50;55.30;;;;;;4833350;29;20050;-94
2022/03/26 12:25:32;;;;;;;34.20;16.95;;;23.70;54.70;;;;;;4835181;29;20064;-93
2022/03/26 12:28:00;;;;;;;33.25;16.98;;;23.70;54.00;;;;;;4830879;29;20033;-96
2022/03/26 12:30:27;;;;;;;27.95;15.00;;;23.70;54.00;;;;;;4836430;29;20064;-95
2022/03/26 12:32:53;;;;;;;27.27;17.15;;;23.60;54.20;;;;;;4857589;29;20030;-93
2022/03/26 12:35:20;;;;;;;33.33;16.58;;;23.70;54.10;;;;;;4859170;29;20053;-95
2022/03/26 12:37:49;;;;;;;32.40;16.10;;;23.90;54.00;;;;;;4823075;29;20026;-94
2022/03/26 12:40:16;;;;;;;26.52;14.85;;;24.00;53.60;;;;;;4856223;29;20022;-96
2022/03/26 12:42:42;;;;;;;32.58;18.50;;;23.90;53.10;;;;;;4862423;29;20081;-96
2022/03/26 12:45:16;;;;;;;30.90;16.35;;;23.90;53.10;;;;;;4850401;29;20038;-96
2022/03/26 12:47:47;;;;;;;29.00;16.25;;;24.00;53.10;;;;;;4849354;29;20026;-96
2022/03/26 12:50:21;;;;;;;31.75;16.75;;;24.10;52.50;;;;;;4848011;29;20191;-96
2022/03/26 12:52:48;;;;;;;28.08;16.58;;;24.10;52.30;;;;;;4850146;29;20041;-96
2022/03/26 12:55:16;;;;;;;28.52;16.70;;;24.20;52.40;;;;;;4834856;29;20390;-95
2022/03/26 13:00:30;;;;;;;26.02;15.32;;;24.50;51.40;;;;;;4830660;29;20050;-95
2022/03/26 13:03:17;;;;;;;31.73;15.73;;;24.60;50.80;;;;;;4812657;29;20034;-96
2022/03/26 13:05:43;;;;;;;30.48;16.63;;;24.70;50.30;;;;;;4810064;29;20030;-96
2022/03/26 13:08:15;;;;;;;32.47;17.23;;;24.70;50.30;;;;;;4828921;29;20481;-96
2022/03/26 13:10:42;;;;;;;27.50;17.10;;;24.50;50.40;;;;;;4800930;29;20041;-96
2022/03/26 13:13:09;;;;;;;28.42;17.13;;;24.40;50.60;;;;;;4824229;29;20098;-96
2022/03/26 13:15:38;;;;;;;24.30;15.68;;;24.40;50.90;;;;;;4844695;29;20076;-95
2022/03/26 13:18:05;;;;;;;33.05;15.38;;;24.50;51.00;;;;;;4847376;29;20031;-95
2022/03/26 13:20:33;;;;;;;31.45;15.30;;;24.50;50.40;;;;;;4831949;29;20030;-95
2022/03/26 13:23:07;;;;;;;27.80;16.70;;;24.40;49.80;;;;;;4815062;29;20041;-95
2022/03/26 13:25:40;;;;;;;24.73;12.80;;;24.30;49.80;;;;;;4816811;29;20043;-96
2022/03/26 17:19:46;;;;;;;30.35;16.00;;;19.90;54.70;;;;;;5538528;23;20365;-96
2022/03/26 17:25:03;;;;;;;27.95;16.35;;;19.60;55.60;;;;;;5083452;23;20054;-96
2022/03/26 17:27:32;;;;;;;26.58;15.57;;;19.50;55.90;;;;;;4844550;29;20041;-95
2022/03/26 17:30:01;;;;;;;26.02;14.82;;;19.40;56.20;;;;;;4829580;29;20038;-95
2022/03/26 17:32:26;;;;;;;24.65;13.95;;;19.40;56.60;;;;;;4837530;29;20059;-96
2022/03/26 17:34:53;;;;;;;28.50;14.02;;;19.30;56.90;;;;;;4853881;29;20030;-95
2022/03/26 17:37:19;;;;;;;24.20;13.80;;;19.30;57.10;;;;;;4824332;29;20038;-96
2022/03/26 17:39:50;;;;;;;22.85;13.68;;;19.20;57.30;;;;;;4971116;24;20125;-95
2022/03/26 17:42:17;;;;;;;20.05;11.63;;;19.10;57.40;;;;;;4836499;29;20030;-95
2022/03/26 17:44:43;;;;;;;28.02;13.40;;;19.00;57.60;;;;;;4858589;29;20089;-95
2022/03/26 17:47:11;;;;;;;20.05;10.98;;;18.90;58.00;;;;;;4926228;23;20087;-96
2022/03/26 17:49:41;;;;;;;24.85;13.23;;;18.80;58.40;;;;;;4862591;29;20048;-96
2022/03/26 17:52:11;;;;;;;23.42;12.43;;;18.70;58.60;;;;;;4844507;29;20042;-95
2022/03/26 17:54:37;;;;;;;;;;;18.40;58.70;;;;;;4831125;29;20045;-95
2022/03/26 17:57:05;;;;;;;20.98;11.80;;;18.20;58.90;;;;;;4849586;29;19903;-96
2022/03/26 17:59:31;;;;;;;24.23;12.38;;;18.00;59.10;;;;;;4850370;29;20018;-96
2022/03/26 18:01:57;;;;;;;28.95;15.60;;;17.90;59.50;;;;;;4865196;29;20105;-96
2022/03/26 18:04:25;;;;;;;33.70;19.45;;;17.70;59.70;;;;;;4849694;29;20038;-95
2022/03/26 18:06:53;;;;;;;43.72;22.80;;;17.50;59.90;;;;;;4849092;29;20022;-96
2022/03/26 18:09:21;;;;;;;38.72;20.27;;;17.40;60.30;;;;;;4844992;29;20062;-95
2022/03/26 18:35:58;;;;;;;46.42;19.92;;;16.30;64.20;;;;;;5102814;24;20086;-96
2022/03/26 18:38:27;;;;;;;40.20;17.88;;;16.10;64.70;;;;;;4948052;24;20042;-94
2022/03/26 19:00:01;;;;;;;58.58;25.55;;;15.30;67.90;;;;;;5624349;24;20074;31
2022/03/26 19:22:33;;;;;;;40.40;17.38;;;14.80;70.60;;;;;;5619819;23;20077;-94
2022/03/26 19:30:10;;;;;;;26.23;14.00;;;14.60;71.80;;;;;;5016164;23;20053;-94
2022/03/26 19:32:38;;;;;;;31.88;16.85;;;14.50;71.60;;;;;;4894179;29;20568;-95
2022/03/26 19:35:05;;;;;;;32.25;15.73;;;14.50;72.00;;;;;;4880789;29;20033;-93
2022/03/26 19:37:31;;;;;;;23.40;13.43;;;14.30;72.30;;;;;;4894057;29;20021;-95
2022/03/26 19:40:01;;;;;;;32.90;15.07;;;14.30;72.60;;;;;;4874042;29;20032;-94
2022/03/26 19:42:27;;;;;;;26.23;14.40;;;14.20;72.90;;;;;;4861996;29;20045;-94
2022/03/26 19:44:53;;;;;;;30.63;15.80;;;14.10;73.20;;;;;;4890599;29;20056;-94
2022/03/26 19:47:20;;;;;;;30.63;16.33;;;14.10;73.50;;;;;;4873684;29;20037;-94
2022/03/26 19:49:50;;;;;;;30.90;14.75;;;14.00;73.90;;;;;;4867964;29;20044;-92
2022/03/26 19:52:16;;;;;;;25.67;14.10;;;13.90;74.20;;;;;;4861529;29;20025;-94
2022/03/26 19:54:46;;;;;;;25.13;12.48;;;13.80;74.30;;;;;;4866061;29;20114;-95
2022/03/26 19:57:11;;;;;;;27.15;13.80;;;13.80;74.60;;;;;;4849690;29;20065;-95
2022/03/26 19:59:39;;;;;;;23.42;11.93;;;13.70;74.90;;;;;;4855607;29;20033;-94
2022/03/26 20:02:06;;;;;;;20.65;11.65;;;13.60;75.20;;;;;;4850328;29;20098;-96
2022/03/26 20:04:32;;;;;;;22.83;12.27;;;13.50;75.50;;;;;;4868150;29;20036;-96
2022/03/26 20:07:02;;;;;;;23.42;11.48;;;13.40;75.70;;;;;;4876221;29;20021;-96
2022/03/26 20:09:31;;;;;;;22.50;12.33;;;13.30;76.10;;;;;;4869076;29;20093;-96
2022/03/26 20:11:57;;;;;;;22.15;12.75;;;13.30;76.30;;;;;;4856948;29;20301;-96
2022/03/26 20:14:32;;;;;;;24.15;13.10;;;13.30;76.50;;;;;;4858137;29;20037;-96
2022/03/26 20:20:00;;;;;;;23.52;13.57;;;13.10;76.90;;;;;;4898893;24;20125;-96
2022/03/26 20:44:47;;;;;;;23.85;12.60;;;12.70;78.00;;;;;;4846884;24;20072;-96
2022/03/26 20:47:15;;;;;;;22.65;11.95;;;12.60;78.00;;;;;;4863118;29;20034;-95
2022/03/26 20:49:47;;;;;;;30.73;13.50;;;12.60;78.10;;;;;;5116208;24;20058;-96
2022/03/26 20:52:25;;;;;;;24.05;13.68;;;12.50;78.20;;;;;;4865266;29;20109;-95
2022/03/26 20:57:27;;;;;;;29.00;14.48;;;12.40;78.50;;;;;;4858814;29;20060;-96
2022/03/26 20:59:53;;;;;;;;;;;12.30;78.70;;;;;;4846765;29;20040;-96
2022/03/26 21:02:19;;;;;;;25.20;14.13;;;12.20;78.70;;;;;;4864531;29;19912;-96
2022/03/26 21:04:47;;;;;;;24.58;14.18;;;12.10;78.70;;;;;;4826995;29;20048;-96
2022/03/26 21:07:15;;;;;;;24.73;14.10;;;12.10;78.90;;;;;;4850417;29;20034;-96
2022/03/26 21:09:44;;;;;;;23.13;13.95;;;12.00;79.10;;;;;;4847885;29;20041;-96
2022/03/26 21:17:17;;;;;;;23.55;14.30;;;11.80;79.60;;;;;;4809511;29;20077;-95
2022/03/26 21:22:21;;;;;;;26.13;14.82;;;11.60;80.00;;;;;;5246316;24;20057;-96
2022/03/26 21:27:36;;;;;;;32.45;16.23;;;11.60;80.40;;;;;;4837053;29;20063;-96
2022/03/26 21:30:03;;;;;;;30.55;16.38;;;11.70;80.30;;;;;;4864332;29;20022;-96
2022/03/26 21:32:32;;;;;;;34.70;18.92;;;11.70;80.60;;;;;;4848044;29;20033;-96
2022/03/26 21:35:00;;;;;;;34.30;16.98;;;11.70;80.60;;;;;;4841855;29;20065;-96
2022/03/26 21:37:36;;;;;;;31.60;16.23;;;11.70;80.80;;;;;;4840559;29;20026;-96
2022/03/26 21:40:09;;;;;;;33.22;17.95;;;11.60;80.90;;;;;;4833545;29;20038;-96
2022/03/26 21:42:42;;;;;;;33.67;18.02;;;11.60;81.00;;;;;;4827794;29;20065;-96
2022/03/26 21:45:11;;;;;;;35.90;17.42;;;11.50;81.20;;;;;;4826613;29;20030;-95
2022/03/26 21:47:37;;;;;;;30.80;17.70;;;11.40;81.30;;;;;;4825201;29;20481;-95
2022/03/26 21:50:06;;;;;;;33.05;16.90;;;11.30;81.50;;;;;;4840987;29;20080;-96
2022/03/26 21:52:31;;;;;;;34.33;18.92;;;11.20;81.90;;;;;;4828933;29;20090;-96
2022/03/26 21:55:04;;;;;;;36.83;19.30;;;11.10;82.10;;;;;;4853780;29;20091;-96
2022/03/26 21:57:33;;;;;;;34.90;18.00;;;11.10;82.40;;;;;;4832711;29;20039;-95
2022/03/26 22:00:00;;;;;;;32.50;17.30;;;11.00;82.70;;;;;;4841135;29;20049;-94
2022/03/26 22:02:27;;;;;;;36.58;17.55;;;10.90;82.90;;;;;;4838203;29;20054;-96
2022/03/26 22:04:53;;;;;;;35.22;18.85;;;10.90;83.30;;;;;;4821347;29;20030;-94
2022/03/26 22:07:19;;;;;;;38.83;19.77;;;10.80;83.50;;;;;;4822571;29;20061;-96
2022/03/26 22:09:45;;;;;;;42.38;20.13;;;10.80;83.80;;;;;;4799381;29;20031;-95
2022/03/26 22:12:11;;;;;;;34.47;18.65;;;10.70;84.00;;;;;;4835953;29;20038;-96
2022/03/26 22:14:40;;;;;;;35.15;19.02;;;10.70;84.40;;;;;;4838688;29;20060;-95
2022/03/26 22:17:09;;;;;;;37.70;19.10;;;10.60;84.70;;;;;;4818821;29;20019;-95
2022/03/26 22:19:48;;;;;;;36.00;18.75;;;10.60;85.00;;;;;;4842578;29;20026;-95
2022/03/26 22:22:20;;;;;;;37.28;19.95;;;10.60;85.40;;;;;;4826352;29;20051;-96
2022/03/26 22:24:45;;;;;;;33.83;19.00;;;10.50;85.70;;;;;;4797043;30;20066;-96
2022/03/26 22:27:14;;;;;;;33.67;18.63;;;10.40;86.00;;;;;;4804150;29;20034;-96
2022/03/26 22:29:43;;;;;;;30.10;17.80;;;10.40;86.40;;;;;;4809468;29;20079;-94
2022/03/26 22:32:10;;;;;;;29.40;16.35;;;10.30;86.60;;;;;;4804493;29;20057;-95
2022/03/26 22:34:39;;;;;;;31.17;16.98;;;10.30;87.00;;;;;;4800888;29;20027;-94
2022/03/26 22:37:05;;;;;;;32.78;17.52;;;10.20;87.20;;;;;;4803492;29;20027;-93
2022/03/26 22:39:30;;;;;;;34.25;19.33;;;10.20;87.60;;;;;;4789242;29;20039;-95
2022/03/26 22:41:57;;;;;;;33.53;18.65;;;10.10;87.90;;;;;;4809352;29;20122;-96
2022/03/26 22:44:23;;;;;;;35.67;19.42;;;10.00;88.20;;;;;;4806273;29;20034;-95
2022/03/26 22:46:49;;;;;;;38.85;19.42;;;10.00;88.60;;;;;;4810184;29;20091;-95
2022/03/26 22:49:15;;;;;;;39.00;20.80;;;9.90;88.80;;;;;;4819487;29;20038;-96
2022/03/26 22:51:46;;;;;;;34.53;19.23;;;9.90;89.10;;;;;;4806736;29;20084;-96
2022/03/26 22:54:15;;;;;;;35.50;18.45;;;9.80;89.50;;;;;;4801629;29;20050;-96
2022/03/26 22:56:48;;;;;;;31.63;18.17;;;9.80;90.00;;;;;;4818528;29;20027;-96
2022/03/26 22:59:14;;;;;;;34.22;18.23;;;9.70;90.10;;;;;;4805361;29;20035;-96
2022/03/26 23:02:03;;;;;;;36.67;18.73;;;9.70;90.30;;;;;;4819589;29;20065;-96
2022/03/26 23:04:31;;;;;;;37.78;18.08;;;9.60;90.50;;;;;;4799503;29;20068;-96
2022/03/26 23:06:58;;;;;;;37.00;18.08;;;9.60;90.60;;;;;;4797762;29;20038;-93
2022/03/26 23:09:24;;;;;;;37.78;18.38;;;9.60;90.80;;;;;;4806469;29;20027;-94
2022/03/26 23:11:51;;;;;;;31.92;17.45;;;9.60;91.00;;;;;;4811768;29;20098;-95
2022/03/26 23:14:17;;;;;;;32.70;17.17;;;9.50;91.10;;;;;;4798807;29;20046;-95
2022/03/26 23:16:45;;;;;;;33.92;18.17;;;9.50;91.30;;;;;;4808085;29;20035;-94
2022/03/26 23:19:11;;;;;;;34.47;16.90;;;9.50;91.40;;;;;;4827458;29;20089;-93
2022/03/26 23:21:38;;;;;;;34.05;17.52;;;9.40;91.50;;;;;;4831462;29;20094;-95
2022/03/26 23:24:05;;;;;;;35.85;17.67;;;9.40;91.70;;;;;;4844801;29;20023;-95
2022/03/26 23:26:31;;;;;;;40.15;18.13;;;9.30;91.90;;;;;;4820655;29;20038;-96
2022/03/26 23:29:00;;;;;;;40.83;17.70;;;9.20;92.20;;;;;;4825787;29;20018;-94
2022/03/26 23:31:28;;;;;;;35.00;17.70;;;9.10;92.60;;;;;;4825670;29;20074;-96
2022/03/26 23:33:58;;;;;;;35.17;16.67;;;9.10;93.00;;;;;;4826115;29;20083;-94
2022/03/26 23:36:24;;;;;;;32.75;17.02;;;9.00;93.30;;;;;;4820993;29;20204;-93
2022/03/26 23:38:53;;;;;;;36.55;18.55;;;9.00;93.70;;;;;;4832528;29;20042;-94
2022/03/26 23:41:20;;;;;;;29.70;15.98;;;8.90;94.30;;;;;;4838886;29;20084;-95
2022/03/26 23:43:49;;;;;;;29.98;15.30;;;8.90;94.20;;;;;;4838154;29;20034;-95
2022/03/26 23:46:17;;;;;;;27.55;15.40;;;8.80;94.50;;;;;;4846770;29;20111;-94
2022/03/26 23:48:44;;;;;;;30.65;15.90;;;8.70;94.70;;;;;;4824044;29;20496;-95
2022/03/26 23:51:10;;;;;;;27.70;15.63;;;8.60;95.00;;;;;;4831531;29;20056;-95
2022/03/26 23:53:36;;;;;;;28.13;14.73;;;8.50;95.30;;;;;;4823990;29;20047;-94
2022/03/26 23:56:02;;;;;;;30.80;14.88;;;8.50;95.80;;;;;;4816581;29;20062;-94
2022/03/26 23:58:27;;;;;;;31.67;16.13;;;8.50;96.20;;;;;;4828739;29;20057;-94
